Terminal Aerodrome Forecast
Issued by NWS

Home | Current Version | Previous Version | Text Only | Print | Product List | Glossary On
Versions: 1 2 3 4 5 6 7 8 9 10 11 12 13 14 15 16 17 18 19 20 21
000
FTUS42 KILM 031100 CCA
TAFCRE
TAF COR
KCRE 031154Z 0312/0412 05009KT P6SM -RA OVC035
     FM031600 06009KT 6SM -RA OVC025
     FM031800 08009KT 5SM -RA BR OVC015
     FM032100 12007KT 3SM -RA BR OVC007
     FM032300 13005KT 2SM -RA BR OVC004
     FM040200 21006KT 5SM BR VCSH BKN004 BKN012 BKN100
     FM040800 22007KT 2SM BR VCSH BKN002 BKN012=

USA.gov is the U.S. government's official web portal to all federal, state and local government web resources and services.